Time;durP1;ratioP1;P1;durP2;ratioP2;P2;SDS_P1;SDS_P2;PMS_P1;PMS_P2;Temp;Humidity;BMP_temperature;BMP_pressure;BME280_temperature;BME280_humidity;BME280_pressure;Samples;Min_cycle;Max_cycle;Signal;HPM_P1;HPM_P2
2023/07/25 00:00:59;;;;;;;5.90;3.30;;;;;;;;;;5112596;28;20073;-57
2023/07/25 00:03:25;;;;;;;8.80;3.60;;;;;;;;;;5111685;28;20635;-58
2023/07/25 00:05:50;;;;;;;7.13;3.15;;;;;;;;;;5112340;28;20023;-58
2023/07/25 00:08:15;;;;;;;7.53;2.75;;;;;;;;;;5109411;28;20027;-58
2023/07/25 00:10:41;;;;;;;9.30;3.40;;;;;;;;;;5110060;28;20114;-59
2023/07/25 00:13:06;;;;;;;6.22;3.00;;;;;;;;;;5111662;28;20023;-59
2023/07/25 00:15:32;;;;;;;8.35;3.38;;;;;;;;;;5112074;28;20041;-59
2023/07/25 00:17:57;;;;;;;8.32;3.17;;;;;;;;;;5112171;28;20486;-58
2023/07/25 00:20:22;;;;;;;7.72;3.22;;;;;;;;;;5111143;28;20027;-59
2023/07/25 00:22:48;;;;;;;8.52;3.35;;;;;;;;;;5112465;28;20080;-59
2023/07/25 00:25:13;;;;;;;9.68;3.40;;;;;;;;;;5109451;28;20023;-58
2023/07/25 00:27:39;;;;;;;7.25;3.50;;;;;;;;;;5112532;28;20080;-59
2023/07/25 00:30:05;;;;;;;7.97;3.40;;;;;;;;;;5112194;28;20046;-58
2023/07/25 00:32:33;;;;;;;8.75;3.63;;;;;;;;;;5110202;28;20032;-58
2023/07/25 00:34:59;;;;;;;7.32;3.45;;;;;;;;;;5112109;28;20529;-59
2023/07/25 00:37:26;;;;;;;5.47;3.03;;;;;;;;;;5109945;28;20031;-59
2023/07/25 00:39:55;;;;;;;8.52;3.70;;;;;;;;;;5109205;28;20027;-59
2023/07/25 00:42:20;;;;;;;9.45;3.50;;;;;;;;;;5110908;28;20149;-58
2023/07/25 00:44:46;;;;;;;7.05;3.17;;;;;;;;;;5111871;28;20532;-58
2023/07/25 00:47:11;;;;;;;6.53;3.38;;;;;;;;;;5110820;28;20019;-60
2023/07/25 00:49:37;;;;;;;7.55;3.25;;;;;;;;;;5112064;28;20023;-59
2023/07/25 00:52:02;;;;;;;9.20;3.30;;;;;;;;;;5110700;28;20399;-59
2023/07/25 00:54:28;;;;;;;5.35;2.97;;;;;;;;;;5110447;28;20111;-59
2023/07/25 00:56:53;;;;;;;5.10;3.08;;;;;;;;;;5111624;28;20061;-59
2023/07/25 00:59:21;;;;;;;8.60;3.38;;;;;;;;;;5111298;28;20031;-60
2023/07/25 01:01:46;;;;;;;9.20;3.20;;;;;;;;;;5112169;28;20024;-60
2023/07/25 01:04:11;;;;;;;7.28;3.10;;;;;;;;;;5092776;28;20063;-61
2023/07/25 01:06:37;;;;;;;6.40;3.75;;;;;;;;;;5109819;28;20472;-58
2023/07/25 01:09:02;;;;;;;7.18;3.20;;;;;;;;;;5110604;28;20078;-58
2023/07/25 01:11:28;;;;;;;7.63;3.40;;;;;;;;;;5108271;28;20042;-58
2023/07/25 01:13:53;;;;;;;7.65;3.47;;;;;;;;;;5111517;28;20488;-59
2023/07/25 01:16:25;;;;;;;8.45;3.20;;;;;;;;;;5110821;28;20023;-60
2023/07/25 01:18:52;;;;;;;9.60;3.22;;;;;;;;;;5111505;28;20028;-59
2023/07/25 01:21:18;;;;;;;8.35;3.40;;;;;;;;;;5109826;28;20024;-60
2023/07/25 01:23:44;;;;;;;8.10;3.35;;;;;;;;;;5111748;28;20032;-60
2023/07/25 01:26:09;;;;;;;8.35;3.67;;;;;;;;;;5110149;28;20104;-60
2023/07/25 01:28:37;;;;;;;5.72;3.60;;;;;;;;;;5110575;28;20087;-59
2023/07/25 01:31:02;;;;;;;7.32;3.53;;;;;;;;;;5111810;28;20167;-59
2023/07/25 01:33:28;;;;;;;10.20;3.53;;;;;;;;;;5111003;28;20876;-60
2023/07/25 01:35:53;;;;;;;8.75;3.60;;;;;;;;;;5110026;28;20032;-59
2023/07/25 01:38:18;;;;;;;7.95;3.75;;;;;;;;;;5112677;28;20027;-62
2023/07/25 01:40:44;;;;;;;6.65;3.40;;;;;;;;;;5114938;28;20027;-58
2023/07/25 01:43:09;;;;;;;8.57;3.35;;;;;;;;;;5114824;28;20066;-60
2023/07/25 01:45:36;;;;;;;8.75;3.50;;;;;;;;;;5114682;28;20028;-60
2023/07/25 01:48:01;;;;;;;9.82;3.95;;;;;;;;;;5114609;28;20031;-59
2023/07/25 01:50:28;;;;;;;10.02;3.88;;;;;;;;;;5113953;28;20024;-58
2023/07/25 01:52:53;;;;;;;9.05;3.47;;;;;;;;;;5112499;28;20044;-59
2023/07/25 01:55:19;;;;;;;8.25;3.53;;;;;;;;;;5112897;28;20418;-59
2023/07/25 01:57:44;;;;;;;7.20;3.60;;;;;;;;;;5112122;27;20031;-59
2023/07/25 02:00:10;;;;;;;6.40;3.55;;;;;;;;;;5114804;28;20059;-59
2023/07/25 02:02:36;;;;;;;7.32;3.50;;;;;;;;;;5111899;28;20080;-59
2023/07/25 02:05:01;;;;;;;9.63;3.63;;;;;;;;;;5115085;28;20030;-59
2023/07/25 02:07:27;;;;;;;8.68;3.80;;;;;;;;;;5113625;28;20032;-58
2023/07/25 02:09:52;;;;;;;10.18;3.47;;;;;;;;;;5114548;28;20123;-58
2023/07/25 02:12:18;;;;;;;8.90;3.70;;;;;;;;;;5113088;28;20065;-59
2023/07/25 02:14:43;;;;;;;12.05;4.00;;;;;;;;;;5113540;28;20059;-58
2023/07/25 02:17:08;;;;;;;10.88;4.22;;;;;;;;;;5114402;28;20066;-58
2023/07/25 02:19:34;;;;;;;8.48;3.42;;;;;;;;;;5113637;28;20625;-58
2023/07/25 02:21:59;;;;;;;9.60;3.97;;;;;;;;;;5114492;28;20031;-59
2023/07/25 02:24:25;;;;;;;7.70;4.10;;;;;;;;;;5112984;28;20479;-60
2023/07/25 02:26:50;;;;;;;8.60;3.92;;;;;;;;;;5108081;28;20032;-59
2023/07/25 02:29:15;;;;;;;8.88;4.45;;;;;;;;;;5110732;28;20043;-60
2023/07/25 02:31:41;;;;;;;7.95;4.53;;;;;;;;;;5113974;28;20062;-59
2023/07/25 02:34:06;;;;;;;8.30;4.50;;;;;;;;;;5114263;28;20055;-59
2023/07/25 02:36:32;;;;;;;8.25;4.47;;;;;;;;;;5110792;27;20031;-60
2023/07/25 02:38:57;;;;;;;11.02;4.70;;;;;;;;;;5113736;28;20369;-58
2023/07/25 02:41:22;;;;;;;12.85;4.20;;;;;;;;;;5112246;28;20039;-59
2023/07/25 02:43:48;;;;;;;8.52;4.65;;;;;;;;;;5114051;28;20367;-58
2023/07/25 02:46:13;;;;;;;8.00;4.15;;;;;;;;;;5113827;28;20039;-60
2023/07/25 02:48:38;;;;;;;9.15;4.40;;;;;;;;;;5113011;28;20456;-59
2023/07/25 02:51:07;;;;;;;8.77;4.75;;;;;;;;;;5113830;28;20353;-59
2023/07/25 02:53:32;;;;;;;11.00;5.20;;;;;;;;;;5112425;28;20053;-59
2023/07/25 02:55:58;;;;;;;9.05;4.95;;;;;;;;;;5111647;28;20023;-59
2023/07/25 02:58:23;;;;;;;11.45;5.43;;;;;;;;;;5112753;28;20042;-59
2023/07/25 03:00:49;;;;;;;10.30;4.95;;;;;;;;;;5113688;28;20349;-59
2023/07/25 03:03:15;;;;;;;8.95;4.93;;;;;;;;;;5113217;28;20031;-59
2023/07/25 03:05:40;;;;;;;11.10;5.53;;;;;;;;;;5113003;28;20107;-59
2023/07/25 03:08:05;;;;;;;12.10;5.10;;;;;;;;;;5111070;28;20027;-59
2023/07/25 03:10:32;;;;;;;14.05;5.22;;;;;;;;;;5111612;28;20103;-60
2023/07/25 03:12:57;;;;;;;8.95;4.90;;;;;;;;;;5113764;28;20027;-58
2023/07/25 03:15:23;;;;;;;12.63;5.57;;;;;;;;;;5112364;28;20062;-60
2023/07/25 03:17:48;;;;;;;12.13;5.45;;;;;;;;;;5113113;28;20023;-59
2023/07/25 03:20:13;;;;;;;10.98;5.50;;;;;;;;;;5113378;28;20035;-60
2023/07/25 03:22:39;;;;;;;12.57;5.40;;;;;;;;;;5109244;28;20059;-59
2023/07/25 03:25:04;;;;;;;14.98;6.05;;;;;;;;;;5111725;28;20380;-58
2023/07/25 03:27:30;;;;;;;12.13;5.90;;;;;;;;;;5112128;28;20486;-59
2023/07/25 03:29:55;;;;;;;11.32;5.85;;;;;;;;;;5113133;28;20453;-58
2023/07/25 03:32:21;;;;;;;8.80;5.30;;;;;;;;;;5112187;28;20502;-59
2023/07/25 03:34:46;;;;;;;10.88;5.30;;;;;;;;;;5114636;28;20032;-58
2023/07/25 03:37:11;;;;;;;9.95;5.60;;;;;;;;;;5112587;28;20031;-58
2023/07/25 03:39:37;;;;;;;10.07;5.22;;;;;;;;;;5109361;28;20031;-58
2023/07/25 03:42:02;;;;;;;10.60;5.10;;;;;;;;;;5112179;28;20047;-58
2023/07/25 03:44:28;;;;;;;7.90;4.90;;;;;;;;;;5112279;28;20031;-59
2023/07/25 03:46:53;;;;;;;12.00;5.30;;;;;;;;;;5112660;28;20065;-58
2023/07/25 03:49:19;;;;;;;7.80;5.32;;;;;;;;;;5111910;28;20061;-60
2023/07/25 03:51:44;;;;;;;10.80;4.97;;;;;;;;;;5112207;28;20031;-58
2023/07/25 03:54:10;;;;;;;11.75;5.32;;;;;;;;;;5111938;28;20379;-58
2023/07/25 03:56:35;;;;;;;12.43;5.85;;;;;;;;;;5110376;28;20027;-59
2023/07/25 03:59:01;;;;;;;14.77;5.75;;;;;;;;;;5112377;28;20036;-59
2023/07/25 04:01:27;;;;;;;12.40;6.22;;;;;;;;;;5111573;28;20039;-59
2023/07/25 04:03:52;;;;;;;12.90;5.80;;;;;;;;;;5111696;28;20089;-57
2023/07/25 04:06:18;;;;;;;19.58;6.47;;;;;;;;;;5110654;28;20031;-59
2023/07/25 04:08:44;;;;;;;10.05;6.10;;;;;;;;;;5111675;28;20043;-58
2023/07/25 04:11:13;;;;;;;11.65;6.10;;;;;;;;;;5112630;28;20106;-59
2023/07/25 04:13:38;;;;;;;9.73;5.72;;;;;;;;;;5111708;28;20027;-59
2023/07/25 04:16:04;;;;;;;14.48;6.00;;;;;;;;;;5112276;28;20039;-58
2023/07/25 04:18:30;;;;;;;13.32;5.78;;;;;;;;;;5110555;28;20027;-58
2023/07/25 04:20:55;;;;;;;15.27;6.80;;;;;;;;;;5112506;28;20026;-59
2023/07/25 04:23:26;;;;;;;10.75;6.30;;;;;;;;;;5107809;28;20065;-60
2023/07/25 04:25:51;;;;;;;13.23;5.88;;;;;;;;;;5109585;28;20027;-59
2023/07/25 04:28:16;;;;;;;12.38;5.88;;;;;;;;;;5112074;28;20050;-58
2023/07/25 04:30:43;;;;;;;10.93;6.30;;;;;;;;;;5111319;28;20316;-58
2023/07/25 04:33:08;;;;;;;10.85;5.78;;;;;;;;;;5112377;28;20039;-58
2023/07/25 04:35:33;;;;;;;11.32;5.88;;;;;;;;;;5111232;28;20032;-58
2023/07/25 04:37:59;;;;;;;13.02;6.53;;;;;;;;;;5107762;28;20123;-58
2023/07/25 04:40:25;;;;;;;12.45;6.18;;;;;;;;;;5108372;28;20040;-59
2023/07/25 04:42:50;;;;;;;14.10;6.50;;;;;;;;;;5112419;28;20027;-59
2023/07/25 04:45:16;;;;;;;11.65;6.40;;;;;;;;;;5110778;28;20042;-59
2023/07/25 04:47:41;;;;;;;11.52;6.40;;;;;;;;;;5111164;28;20034;-58
2023/07/25 04:50:07;;;;;;;13.27;6.75;;;;;;;;;;5111932;28;20027;-60
2023/07/25 04:52:32;;;;;;;16.02;6.75;;;;;;;;;;5110317;28;20024;-60
2023/07/25 04:54:58;;;;;;;12.82;6.90;;;;;;;;;;5112095;28;20036;-60
2023/07/25 04:57:27;;;;;;;21.60;8.15;;;;;;;;;;5111482;28;20100;-61
2023/07/25 04:59:53;;;;;;;13.20;7.28;;;;;;;;;;5110952;28;20032;-60
2023/07/25 05:02:19;;;;;;;13.85;6.85;;;;;;;;;;5110231;28;20039;-59
2023/07/25 05:04:45;;;;;;;14.40;7.10;;;;;;;;;;5111023;28;20059;-59
2023/07/25 05:07:10;;;;;;;15.85;7.50;;;;;;;;;;5112118;28;20092;-59
2023/07/25 05:09:35;;;;;;;13.50;7.28;;;;;;;;;;5109005;28;20499;-59
2023/07/25 05:12:04;;;;;;;15.68;7.82;;;;;;;;;;5113026;28;20038;-57
2023/07/25 05:14:29;;;;;;;12.85;6.82;;;;;;;;;;5114916;28;20092;-59
2023/07/25 05:16:55;;;;;;;15.00;7.78;;;;;;;;;;5111542;28;20453;-59
2023/07/25 05:19:20;;;;;;;14.70;7.30;;;;;;;;;;5115536;28;20375;-58
2023/07/25 05:21:45;;;;;;;17.08;7.80;;;;;;;;;;5106659;28;20059;-64
2023/07/25 05:24:11;;;;;;;15.35;7.13;;;;;;;;;;5113414;28;20035;-62
2023/07/25 05:26:36;;;;;;;15.07;7.80;;;;;;;;;;5114428;28;20034;-62
2023/07/25 05:29:01;;;;;;;15.02;6.60;;;;;;;;;;5114351;28;20096;-63
2023/07/25 05:31:27;;;;;;;14.60;6.72;;;;;;;;;;5114964;28;20562;-65
2023/07/25 05:33:52;;;;;;;12.45;6.70;;;;;;;;;;5115169;28;20107;-64
2023/07/25 05:36:18;;;;;;;16.15;7.63;;;;;;;;;;5113917;28;20465;-62
2023/07/25 05:38:43;;;;;;;15.07;7.47;;;;;;;;;;5113173;27;20117;-64
2023/07/25 05:41:08;;;;;;;14.15;6.38;;;;;;;;;;5115045;28;20042;-63
2023/07/25 05:43:34;;;;;;;11.88;7.28;;;;;;;;;;5111539;28;20098;-66
2023/07/25 05:45:59;;;;;;;17.20;7.43;;;;;;;;;;5114115;28;20035;-64
2023/07/25 05:48:25;;;;;;;15.80;7.13;;;;;;;;;;5114503;28;20035;-63
2023/07/25 05:50:53;;;;;;;13.95;6.90;;;;;;;;;;5112153;27;20028;-63
2023/07/25 05:53:19;;;;;;;12.38;6.93;;;;;;;;;;5093291;28;20028;-64
2023/07/25 05:55:45;;;;;;;11.13;6.43;;;;;;;;;;5095223;28;20081;-63
2023/07/25 05:58:14;;;;;;;10.13;5.40;;;;;;;;;;5115305;28;20023;-63
2023/07/25 06:00:39;;;;;;;13.20;5.10;;;;;;;;;;5112733;28;20032;-63
2023/07/25 06:03:05;;;;;;;8.20;4.60;;;;;;;;;;5108498;28;20040;-64
2023/07/25 06:05:30;;;;;;;9.50;4.20;;;;;;;;;;5110032;28;20106;-65
2023/07/25 06:07:55;;;;;;;9.63;4.00;;;;;;;;;;5114660;28;20032;-64
2023/07/25 06:10:21;;;;;;;11.23;3.83;;;;;;;;;;5113851;28;20031;-65
2023/07/25 06:12:49;;;;;;;12.23;3.83;;;;;;;;;;5110697;28;20024;-64
2023/07/25 06:15:15;;;;;;;10.20;4.03;;;;;;;;;;5114478;28;20099;-63
2023/07/25 06:17:40;;;;;;;6.78;3.05;;;;;;;;;;5097061;28;20106;-64
2023/07/25 06:20:06;;;;;;;10.07;3.30;;;;;;;;;;5096867;28;20074;-64
2023/07/25 06:22:31;;;;;;;9.70;3.10;;;;;;;;;;5092619;28;20050;-64
2023/07/25 06:24:57;;;;;;;10.05;2.80;;;;;;;;;;5109091;28;20031;-63
2023/07/25 06:27:22;;;;;;;10.13;2.85;;;;;;;;;;5112412;28;20038;-63
2023/07/25 06:29:48;;;;;;;7.72;2.60;;;;;;;;;;5109424;28;20035;-63
2023/07/25 06:32:14;;;;;;;10.65;3.10;;;;;;;;;;5114372;28;20036;-63
2023/07/25 06:34:39;;;;;;;7.13;2.67;;;;;;;;;;5113449;28;20031;-64
2023/07/25 06:37:05;;;;;;;11.55;2.80;;;;;;;;;;5113940;28;20103;-63
2023/07/25 06:39:30;;;;;;;8.88;2.67;;;;;;;;;;5109611;28;20047;-64
2023/07/25 06:41:56;;;;;;;9.23;2.60;;;;;;;;;;5112713;28;20024;-64
2023/07/25 06:44:21;;;;;;;6.93;2.78;;;;;;;;;;5113680;28;20434;-64
2023/07/25 06:46:46;;;;;;;8.65;2.70;;;;;;;;;;5112640;28;20050;-64
2023/07/25 06:49:12;;;;;;;7.90;2.53;;;;;;;;;;5112645;28;20104;-64
2023/07/25 06:51:38;;;;;;;7.85;2.40;;;;;;;;;;5111786;28;20027;-66
2023/07/25 06:54:03;;;;;;;6.90;2.60;;;;;;;;;;5111560;28;20449;-64
2023/07/25 06:56:29;;;;;;;8.40;2.42;;;;;;;;;;5113063;28;20032;-67
2023/07/25 06:58:54;;;;;;;8.57;2.47;;;;;;;;;;5112478;28;20376;-65
2023/07/25 07:01:20;;;;;;;10.85;2.40;;;;;;;;;;5111850;28;20099;-64
2023/07/25 07:03:46;;;;;;;8.73;2.72;;;;;;;;;;5112579;28;20024;-64
2023/07/25 07:06:11;;;;;;;7.43;2.17;;;;;;;;;;5111893;28;20474;-64
2023/07/25 07:08:37;;;;;;;6.40;2.38;;;;;;;;;;5111537;28;20023;-63
2023/07/25 07:11:02;;;;;;;7.28;1.95;;;;;;;;;;5113525;28;20136;-64
2023/07/25 07:13:28;;;;;;;9.50;2.40;;;;;;;;;;5112130;28;20028;-66
2023/07/25 07:15:54;;;;;;;7.68;2.50;;;;;;;;;;5111856;28;20031;-65
2023/07/25 07:18:19;;;;;;;7.18;2.30;;;;;;;;;;5113249;28;20404;-64
2023/07/25 07:20:48;;;;;;;5.72;2.13;;;;;;;;;;5110053;28;20040;-66
2023/07/25 07:23:13;;;;;;;7.43;2.17;;;;;;;;;;5101779;28;20035;-64
2023/07/25 07:25:39;;;;;;;6.35;2.22;;;;;;;;;;5110950;28;20042;-64
2023/07/25 07:28:05;;;;;;;7.82;2.05;;;;;;;;;;5097276;28;20469;-63
2023/07/25 07:30:30;;;;;;;9.45;2.30;;;;;;;;;;5108066;28;20028;-65
2023/07/25 07:32:56;;;;;;;7.13;2.10;;;;;;;;;;5097961;28;20035;-63
2023/07/25 07:35:21;;;;;;;7.78;2.97;;;;;;;;;;5105098;28;20061;-64
2023/07/25 07:37:47;;;;;;;5.57;2.00;;;;;;;;;;5098981;28;20043;-63
2023/07/25 07:40:12;;;;;;;6.85;2.17;;;;;;;;;;5092464;28;20114;-63
2023/07/25 07:42:38;;;;;;;5.60;2.10;;;;;;;;;;5095492;28;20388;-64
2023/07/25 07:45:03;;;;;;;5.93;2.00;;;;;;;;;;5110954;28;20035;-63
2023/07/25 07:47:29;;;;;;;8.80;2.25;;;;;;;;;;5110078;28;20036;-67
2023/07/25 07:49:54;;;;;;;8.38;2.10;;;;;;;;;;5110625;28;20624;-64
2023/07/25 07:52:20;;;;;;;5.78;1.92;;;;;;;;;;5111817;28;20028;-64
2023/07/25 07:54:45;;;;;;;6.32;1.80;;;;;;;;;;5109251;28;20039;-64
2023/07/25 07:57:10;;;;;;;5.63;1.90;;;;;;;;;;5110127;28;20080;-65
2023/07/25 07:59:36;;;;;;;7.40;2.47;;;;;;;;;;5111857;28;20425;-66
2023/07/25 08:02:01;;;;;;;7.03;2.20;;;;;;;;;;5112188;28;20027;-65
2023/07/25 08:04:27;;;;;;;7.13;2.00;;;;;;;;;;5108013;28;20054;-64
2023/07/25 08:06:53;;;;;;;6.35;1.88;;;;;;;;;;5108884;28;20049;-65
2023/07/25 08:09:18;;;;;;;6.55;1.80;;;;;;;;;;5111581;28;20140;-64
2023/07/25 08:11:43;;;;;;;4.20;1.75;;;;;;;;;;5111096;28;20031;-63
2023/07/25 08:14:09;;;;;;;7.55;2.17;;;;;;;;;;5112354;28;20392;-63
2023/07/25 08:16:35;;;;;;;4.82;1.80;;;;;;;;;;5111490;28;20059;-65
2023/07/25 08:19:00;;;;;;;5.88;1.98;;;;;;;;;;5093888;28;20032;-64
2023/07/25 08:21:25;;;;;;;5.22;1.92;;;;;;;;;;5108915;28;20031;-64
2023/07/25 08:23:51;;;;;;;7.25;2.25;;;;;;;;;;5091909;28;20525;-64
2023/07/25 08:26:16;;;;;;;7.22;2.17;;;;;;;;;;5098510;28;20026;-63
2023/07/25 08:28:42;;;;;;;7.97;2.05;;;;;;;;;;5103853;28;20475;-63
2023/07/25 08:31:07;;;;;;;7.05;2.20;;;;;;;;;;5111026;28;20059;-63
2023/07/25 08:33:36;;;;;;;5.90;1.92;;;;;;;;;;5111676;28;20415;-65
2023/07/25 08:36:02;;;;;;;4.22;1.90;;;;;;;;;;5109545;28;20039;-60
2023/07/25 08:38:28;;;;;;;7.57;2.03;;;;;;;;;;5111831;28;20040;-61
2023/07/25 08:41:01;;;;;;;7.22;2.28;;;;;;;;;;5109981;28;20019;-61
2023/07/25 08:43:28;;;;;;;6.43;2.00;;;;;;;;;;5101527;28;20468;-61
2023/07/25 08:45:59;;;;;;;5.88;1.95;;;;;;;;;;5112968;28;20301;-63
2023/07/25 08:48:26;;;;;;;6.78;2.10;;;;;;;;;;5115091;28;20032;-63
2023/07/25 08:50:54;;;;;;;7.22;2.20;;;;;;;;;;5114964;28;20036;-63
2023/07/25 08:53:23;;;;;;;6.43;2.05;;;;;;;;;;5112834;28;20071;-63
2023/07/25 08:55:50;;;;;;;6.68;2.33;;;;;;;;;;5094925;28;20039;-64
2023/07/25 08:58:16;;;;;;;6.68;2.10;;;;;;;;;;5095522;28;20076;-61
2023/07/25 09:00:43;;;;;;;8.10;2.40;;;;;;;;;;5094577;28;20119;-63
2023/07/25 09:03:08;;;;;;;7.07;2.45;;;;;;;;;;5109005;28;20042;-62
2023/07/25 09:05:34;;;;;;;6.63;2.30;;;;;;;;;;5116297;28;20434;-63
2023/07/25 09:08:00;;;;;;;5.20;2.13;;;;;;;;;;5105825;27;20064;-62
2023/07/25 09:10:27;;;;;;;7.80;2.00;;;;;;;;;;5095312;28;20024;-62
2023/07/25 09:12:53;;;;;;;6.32;2.30;;;;;;;;;;5107481;28;20068;-61
2023/07/25 09:15:19;;;;;;;5.47;2.28;;;;;;;;;;5114962;28;20047;-62
2023/07/25 09:17:44;;;;;;;6.10;2.10;;;;;;;;;;5114551;28;20063;-63
2023/07/25 09:20:10;;;;;;;6.18;2.35;;;;;;;;;;5112997;28;20028;-63
2023/07/25 09:22:36;;;;;;;4.68;1.90;;;;;;;;;;5113255;28;20468;-65
2023/07/25 09:25:07;;;;;;;7.28;2.13;;;;;;;;;;5114661;28;20031;-63
2023/07/25 09:27:33;;;;;;;5.93;2.10;;;;;;;;;;5110252;28;20040;-63
2023/07/25 09:29:58;;;;;;;5.65;1.92;;;;;;;;;;5110179;28;20050;-64
2023/07/25 09:32:25;;;;;;;6.75;2.00;;;;;;;;;;5111835;28;20028;-64
2023/07/25 09:34:55;;;;;;;5.63;1.90;;;;;;;;;;5114446;28;20066;-63
2023/07/25 09:37:21;;;;;;;5.57;2.03;;;;;;;;;;5112821;28;20030;-63
2023/07/25 09:39:47;;;;;;;6.25;2.10;;;;;;;;;;5109060;28;20351;-62
2023/07/25 09:42:12;;;;;;;5.43;2.20;;;;;;;;;;5112857;28;20026;-63
2023/07/25 09:44:46;;;;;;;5.32;1.95;;;;;;;;;;5113412;28;20459;-66
2023/07/25 09:47:12;;;;;;;7.10;2.00;;;;;;;;;;5114588;28;20031;-64
2023/07/25 09:49:37;;;;;;;5.18;2.00;;;;;;;;;;5094327;28;20028;-66
2023/07/25 09:52:04;;;;;;;6.97;1.90;;;;;;;;;;5094181;28;20020;-65
2023/07/25 09:54:30;;;;;;;4.53;1.88;;;;;;;;;;5094972;28;20090;-64
2023/07/25 09:56:56;;;;;;;5.60;1.80;;;;;;;;;;5098032;28;20534;-63
2023/07/25 09:59:22;;;;;;;5.70;2.00;;;;;;;;;;5112204;28;20036;-65
2023/07/25 10:01:50;;;;;;;5.82;1.98;;;;;;;;;;5114014;28;20039;-63
2023/07/25 10:04:16;;;;;;;6.63;2.10;;;;;;;;;;5112695;28;20028;-61
2023/07/25 10:06:42;;;;;;;6.93;1.90;;;;;;;;;;5113801;28;20031;-61
2023/07/25 10:09:08;;;;;;;5.13;1.80;;;;;;;;;;5114482;28;20031;-61
2023/07/25 10:11:35;;;;;;;6.07;1.75;;;;;;;;;;5113429;28;20047;-63
2023/07/25 10:14:01;;;;;;;6.80;1.98;;;;;;;;;;5112809;28;20772;-60
2023/07/25 10:16:26;;;;;;;5.00;2.03;;;;;;;;;;5114818;28;20053;-60
2023/07/25 10:18:54;;;;;;;6.03;2.20;;;;;;;;;;5099558;28;20036;-60
2023/07/25 10:21:25;;;;;;;5.30;1.98;;;;;;;;;;5099371;28;20038;-60
2023/07/25 10:23:57;;;;;;;7.13;2.20;;;;;;;;;;5113173;28;20028;-60
2023/07/25 10:26:23;;;;;;;7.28;2.33;;;;;;;;;;5112955;28;20039;-60
2023/07/25 10:28:49;;;;;;;6.32;2.00;;;;;;;;;;5112991;28;20048;-63
2023/07/25 10:31:23;;;;;;;9.18;2.47;;;;;;;;;;5113615;28;20028;-61
2023/07/25 10:33:57;;;;;;;12.38;2.55;;;;;;;;;;5101816;28;20040;-62
2023/07/25 10:36:24;;;;;;;4.50;1.98;;;;;;;;;;5094127;28;20027;-61
2023/07/25 10:38:50;;;;;;;9.77;2.15;;;;;;;;;;5100349;28;20019;-62
2023/07/25 10:41:19;;;;;;;7.43;2.10;;;;;;;;;;5113980;28;20032;-62
2023/07/25 10:43:55;;;;;;;3.80;1.80;;;;;;;;;;5112225;28;20036;-62
2023/07/25 10:46:34;;;;;;;5.15;1.98;;;;;;;;;;5113556;28;20039;-62
2023/07/25 10:49:16;;;;;;;11.07;2.10;;;;;;;;;;5111998;28;20062;-62
2023/07/25 10:51:49;;;;;;;5.47;1.90;;;;;;;;;;5113829;28;20035;-65
2023/07/25 10:54:19;;;;;;;5.35;2.03;;;;;;;;;;5101517;28;20036;-61
2023/07/25 10:57:14;;;;;;;4.78;1.92;;;;;;;;;;5092972;28;20039;-60
2023/07/25 11:00:07;;;;;;;5.28;2.03;;;;;;;;;;5098500;28;20027;-61
2023/07/25 11:02:32;;;;;;;10.15;2.30;;;;;;;;;;5113739;28;20054;-63
2023/07/25 11:05:12;;;;;;;5.38;2.00;;;;;;;;;;5096159;28;20464;-61
2023/07/25 11:07:39;;;;;;;6.07;2.40;;;;;;;;;;5112745;28;20476;-61
2023/07/25 11:10:05;;;;;;;6.53;2.10;;;;;;;;;;5109718;28;20027;-61
2023/07/25 11:12:34;;;;;;;5.60;2.10;;;;;;;;;;5113515;28;20098;-60
2023/07/25 11:15:00;;;;;;;5.32;2.03;;;;;;;;;;5112281;28;20164;-60
2023/07/25 11:17:28;;;;;;;6.20;1.88;;;;;;;;;;5111446;28;20114;-61
2023/07/25 11:20:09;;;;;;;7.25;1.98;;;;;;;;;;5094758;28;20119;-60
2023/07/25 11:22:34;;;;;;;6.55;2.10;;;;;;;;;;5104458;28;20487;-60
2023/07/25 11:25:05;;;;;;;6.57;2.10;;;;;;;;;;5110452;28;20050;-61
2023/07/25 11:27:31;;;;;;;8.95;2.58;;;;;;;;;;5105894;28;20047;-60
2023/07/25 11:30:15;;;;;;;6.43;2.30;;;;;;;;;;5091530;28;20082;-61
2023/07/25 11:32:47;;;;;;;8.38;2.60;;;;;;;;;;5098042;28;20353;-61
2023/07/25 11:35:12;;;;;;;5.97;2.22;;;;;;;;;;5094281;28;20438;-61
2023/07/25 11:37:38;;;;;;;6.82;2.15;;;;;;;;;;5104021;28;20024;-61
2023/07/25 11:40:21;;;;;;;5.05;1.90;;;;;;;;;;5104719;28;20111;-61
2023/07/25 11:42:49;;;;;;;5.88;1.98;;;;;;;;;;5109027;28;20031;-62
2023/07/25 11:45:15;;;;;;;5.10;1.73;;;;;;;;;;5098212;28;20123;-61
2023/07/25 11:47:51;;;;;;;4.65;1.90;;;;;;;;;;5112832;28;20460;-61
2023/07/25 11:50:19;;;;;;;5.93;1.88;;;;;;;;;;5112761;28;20044;-61
2023/07/25 11:52:46;;;;;;;4.60;1.73;;;;;;;;;;5106978;28;20055;-62
2023/07/25 11:55:13;;;;;;;5.43;1.80;;;;;;;;;;5112117;28;20032;-61
2023/07/25 11:57:41;;;;;;;4.13;1.95;;;;;;;;;;5110565;28;20020;-61
2023/07/25 12:00:15;;;;;;;4.68;1.80;;;;;;;;;;5097670;28;20028;-61
2023/07/25 12:02:42;;;;;;;5.50;1.80;;;;;;;;;;5092266;28;20460;-61
2023/07/25 12:05:08;;;;;;;5.63;1.60;;;;;;;;;;5089901;28;20028;-62
2023/07/25 12:08:03;;;;;;;2.92;1.40;;;;;;;;;;5103963;28;20032;-61
2023/07/25 12:10:35;;;;;;;5.47;1.60;;;;;;;;;;5092275;28;20032;-61
2023/07/25 12:13:08;;;;;;;5.28;1.58;;;;;;;;;;5095229;28;20040;-62
2023/07/25 12:15:50;;;;;;;4.38;1.50;;;;;;;;;;5092223;28;20043;-61
2023/07/25 12:18:26;;;;;;;5.90;1.40;;;;;;;;;;5092303;28;20032;-61
2023/07/25 12:20:52;;;;;;;3.85;1.40;;;;;;;;;;5089667;28;20039;-62
2023/07/25 12:23:17;;;;;;;3.58;1.35;;;;;;;;;;5103765;28;20036;-60
2023/07/25 12:25:43;;;;;;;3.78;1.50;;;;;;;;;;5110936;28;20023;-60
2023/07/25 12:28:08;;;;;;;2.05;1.20;;;;;;;;;;5109854;28;20036;-62
2023/07/25 12:30:35;;;;;;;3.33;1.30;;;;;;;;;;5110405;28;20069;-62
2023/07/25 12:33:00;;;;;;;2.78;1.30;;;;;;;;;;5111161;28;20039;-61
2023/07/25 12:35:26;;;;;;;4.72;1.58;;;;;;;;;;5093669;28;20028;-61
2023/07/25 12:37:51;;;;;;;2.33;1.40;;;;;;;;;;5090964;28;20028;-62
2023/07/25 12:40:17;;;;;;;4.28;1.50;;;;;;;;;;5090791;28;20066;-61
2023/07/25 12:42:42;;;;;;;3.25;1.48;;;;;;;;;;5112247;28;20032;-61
2023/07/25 12:45:08;;;;;;;3.10;1.35;;;;;;;;;;5110543;28;20039;-60
2023/07/25 12:47:34;;;;;;;5.30;1.60;;;;;;;;;;5111144;28;20088;-61
2023/07/25 12:49:59;;;;;;;4.05;1.40;;;;;;;;;;5109465;28;20472;-61
2023/07/25 12:52:25;;;;;;;3.55;1.50;;;;;;;;;;5110617;28;20484;-61
2023/07/25 12:54:50;;;;;;;3.67;1.65;;;;;;;;;;5111007;28;20475;-62
2023/07/25 12:57:15;;;;;;;6.43;1.70;;;;;;;;;;5106698;28;20436;-60
2023/07/25 12:59:41;;;;;;;3.58;1.42;;;;;;;;;;5110991;28;20145;-61
2023/07/25 13:02:07;;;;;;;4.60;1.13;;;;;;;;;;5111215;28;20887;-61
2023/07/25 13:04:33;;;;;;;4.25;1.40;;;;;;;;;;5111024;28;20444;-61
2023/07/25 13:06:58;;;;;;;3.47;1.60;;;;;;;;;;5107476;28;20035;-60
2023/07/25 13:09:24;;;;;;;3.85;1.40;;;;;;;;;;5103000;28;20452;-61
2023/07/25 13:11:49;;;;;;;2.35;1.27;;;;;;;;;;5090724;28;20081;-62
2023/07/25 13:14:14;;;;;;;4.72;1.50;;;;;;;;;;5091267;28;20043;-62
2023/07/25 13:16:40;;;;;;;2.90;1.20;;;;;;;;;;5090839;28;20078;-61
2023/07/25 13:19:05;;;;;;;3.22;1.40;;;;;;;;;;5090416;28;20067;-60
2023/07/25 13:21:30;;;;;;;4.47;1.40;;;;;;;;;;5103221;28;20373;-61
2023/07/25 13:23:58;;;;;;;2.65;1.10;;;;;;;;;;5105892;28;20052;-61
2023/07/25 13:26:24;;;;;;;4.82;1.50;;;;;;;;;;5091577;28;20050;-61
2023/07/25 13:28:49;;;;;;;5.43;1.23;;;;;;;;;;5090110;28;20126;-63
2023/07/25 13:31:14;;;;;;;4.38;1.33;;;;;;;;;;5091084;28;20498;-62
2023/07/25 13:33:40;;;;;;;3.70;1.27;;;;;;;;;;5093931;28;20024;-62
2023/07/25 13:36:05;;;;;;;6.68;1.35;;;;;;;;;;5105404;28;20024;-60
2023/07/25 13:38:30;;;;;;;3.90;1.40;;;;;;;;;;5102391;28;20069;-62
2023/07/25 13:40:56;;;;;;;4.25;1.55;;;;;;;;;;5101921;28;20036;-62
2023/07/25 13:43:21;;;;;;;4.65;1.70;;;;;;;;;;5094499;28;20390;-61
2023/07/25 13:45:46;;;;;;;2.85;1.40;;;;;;;;;;5100514;28;20027;-62
2023/07/25 13:48:12;;;;;;;3.38;1.40;;;;;;;;;;5114603;28;20034;-62
2023/07/25 13:50:40;;;;;;;4.72;1.50;;;;;;;;;;5108636;28;20026;-62
2023/07/25 13:53:05;;;;;;;2.22;1.30;;;;;;;;;;5114314;28;20096;-61
2023/07/25 13:55:31;;;;;;;2.03;1.30;;;;;;;;;;5114765;28;20016;-62
2023/07/25 13:57:56;;;;;;;1.90;1.23;;;;;;;;;;5112325;28;20095;-62
2023/07/25 14:00:22;;;;;;;4.20;1.35;;;;;;;;;;5102948;28;20120;-62
2023/07/25 14:02:47;;;;;;;3.33;1.50;;;;;;;;;;5114199;28;20030;-64
2023/07/25 14:05:12;;;;;;;3.40;1.30;;;;;;;;;;5112331;28;20027;-62
2023/07/25 14:07:38;;;;;;;4.47;1.50;;;;;;;;;;5113842;28;20039;-62
2023/07/25 14:10:04;;;;;;;3.67;1.38;;;;;;;;;;5113863;28;20039;-62
2023/07/25 14:12:29;;;;;;;3.83;1.50;;;;;;;;;;5114814;28;20036;-62
2023/07/25 14:14:55;;;;;;;2.75;1.25;;;;;;;;;;5113383;28;20027;-62
2023/07/25 14:17:23;;;;;;;2.97;1.38;;;;;;;;;;5111089;28;20527;-63
2023/07/25 14:19:48;;;;;;;2.65;1.30;;;;;;;;;;5112484;28;20032;-65
2023/07/25 14:22:14;;;;;;;3.72;1.30;;;;;;;;;;5114599;28;20103;-63
2023/07/25 14:24:39;;;;;;;5.72;1.63;;;;;;;;;;5113397;28;20373;-62
2023/07/25 14:27:04;;;;;;;6.03;1.52;;;;;;;;;;5113166;28;20036;-63
2023/07/25 14:29:30;;;;;;;3.13;1.20;;;;;;;;;;5114056;28;20077;-62
2023/07/25 14:31:55;;;;;;;3.60;1.38;;;;;;;;;;5115499;28;20494;-63
2023/07/25 14:34:23;;;;;;;3.95;1.60;;;;;;;;;;5110326;28;20036;-62
2023/07/25 14:36:48;;;;;;;2.22;1.25;;;;;;;;;;5092799;28;20055;-65